sensor_id;sensor_type;location;lat;lon;timestamp;pressure;altitude;pressure_sealevel;temperature;humidity
75701;BME280;64321;48.796;44.740;2022-11-25T00:02:05;101889.97;;;3.38;72.27
75701;BME280;64321;48.796;44.740;2022-11-25T00:07:08;101892.53;;;3.39;72.69
75701;BME280;64321;48.796;44.740;2022-11-25T00:12:10;101899.03;;;3.25;73.27
75701;BME280;64321;48.796;44.740;2022-11-25T00:17:13;101903.25;;;3.30;72.50
75701;BME280;64321;48.796;44.740;2022-11-25T00:22:16;101914.03;;;3.20;72.16
75701;BME280;64321;48.796;44.740;2022-11-25T00:27:18;101917.78;;;3.09;72.48
75701;BME280;64321;48.796;44.740;2022-11-25T00:32:21;101914.16;;;3.15;72.29
75701;BME280;64321;48.796;44.740;2022-11-25T00:37:23;101921.72;;;3.23;72.71
75701;BME280;64321;48.796;44.740;2022-11-25T00:42:26;101928.28;;;3.08;73.23
75701;BME280;64321;48.796;44.740;2022-11-25T00:47:47;101929.72;;;3.18;72.80
75701;BME280;64321;48.796;44.740;2022-11-25T00:52:52;101916.03;;;3.10;73.35
75701;BME280;64321;48.796;44.740;2022-11-25T00:57:54;101911.28;;;2.95;73.84
75701;BME280;64321;48.796;44.740;2022-11-25T01:02:57;101917.75;;;3.11;73.52
75701;BME280;64321;48.796;44.740;2022-11-25T01:08:00;101911.03;;;3.04;73.62
75701;BME280;64321;48.796;44.740;2022-11-25T01:13:02;101909.41;;;3.00;73.12
75701;BME280;64321;48.796;44.740;2022-11-25T01:18:05;101933.69;;;3.02;72.82
75701;BME280;64321;48.796;44.740;2022-11-25T01:23:07;101933.56;;;2.75;72.97
75701;BME280;64321;48.796;44.740;2022-11-25T01:28:10;101928.31;;;2.77;73.15
75701;BME280;64321;48.796;44.740;2022-11-25T01:33:12;101924.53;;;2.87;73.19
75701;BME280;64321;48.796;44.740;2022-11-25T01:38:15;101921.72;;;2.95;73.12
75701;BME280;64321;48.796;44.740;2022-11-25T01:43:18;101919.84;;;3.00;73.14
75701;BME280;64321;48.796;44.740;2022-11-25T01:48:26;101919.75;;;3.03;73.84
75701;BME280;64321;48.796;44.740;2022-11-25T01:53:30;101920.81;;;2.96;73.74
75701;BME280;64321;48.796;44.740;2022-11-25T01:58:34;101919.84;;;2.69;73.93
75701;BME280;64321;48.796;44.740;2022-11-25T02:03:42;101926.72;;;2.71;73.89
75701;BME280;64321;48.796;44.740;2022-11-25T02:08:50;101930.41;;;2.64;74.04
75701;BME280;64321;48.796;44.740;2022-11-25T02:13:55;101937.81;;;2.79;73.95
75701;BME280;64321;48.796;44.740;2022-11-25T02:19:00;101947.59;;;2.71;73.87
75701;BME280;64321;48.796;44.740;2022-11-25T02:24:15;101959.66;;;2.75;73.71
75701;BME280;64321;48.796;44.740;2022-11-25T02:29:20;101946.88;;;2.66;73.87
75701;BME280;64321;48.796;44.740;2022-11-25T02:34:24;101954.69;;;2.66;74.08
75701;BME280;64321;48.796;44.740;2022-11-25T02:39:27;101945.16;;;2.65;74.14
75701;BME280;64321;48.796;44.740;2022-11-25T02:44:31;101944.09;;;2.40;74.85
75701;BME280;64321;48.796;44.740;2022-11-25T02:49:33;101942.75;;;2.58;74.38
75701;BME280;64321;48.796;44.740;2022-11-25T02:54:36;101931.22;;;2.66;74.22
75701;BME280;64321;48.796;44.740;2022-11-25T02:59:39;101941.41;;;2.75;74.24
75701;BME280;64321;48.796;44.740;2022-11-25T03:04:41;101936.69;;;2.57;74.19
75701;BME280;64321;48.796;44.740;2022-11-25T03:09:44;101934.47;;;2.74;73.60
75701;BME280;64321;48.796;44.740;2022-11-25T03:14:47;101926.84;;;2.68;73.86
75701;BME280;64321;48.796;44.740;2022-11-25T03:19:50;101935.47;;;2.69;74.02
75701;BME280;64321;48.796;44.740;2022-11-25T03:24:53;101944.78;;;2.79;73.80
75701;BME280;64321;48.796;44.740;2022-11-25T03:29:55;101933.25;;;2.55;73.81
75701;BME280;64321;48.796;44.740;2022-11-25T03:34:58;101930.03;;;2.47;74.23
75701;BME280;64321;48.796;44.740;2022-11-25T03:40:02;101923.41;;;2.34;74.60
75701;BME280;64321;48.796;44.740;2022-11-25T03:45:07;101929.41;;;2.37;74.77
75701;BME280;64321;48.796;44.740;2022-11-25T03:50:14;101940.44;;;2.47;74.22
75701;BME280;64321;48.796;44.740;2022-11-25T03:55:19;101943.63;;;2.58;74.69
75701;BME280;64321;48.796;44.740;2022-11-25T04:00:23;101943.38;;;2.67;74.67
75701;BME280;64321;48.796;44.740;2022-11-25T04:05:33;101938.81;;;2.43;74.59
75701;BME280;64321;48.796;44.740;2022-11-25T04:10:40;101953.50;;;2.47;74.01
75701;BME280;64321;48.796;44.740;2022-11-25T04:15:49;101955.59;;;2.33;74.13
75701;BME280;64321;48.796;44.740;2022-11-25T04:20:52;101959.91;;;2.34;74.09
75701;BME280;64321;48.796;44.740;2022-11-25T04:25:55;101966.34;;;2.53;74.14
75701;BME280;64321;48.796;44.740;2022-11-25T04:31:06;101969.69;;;2.58;74.12
75701;BME280;64321;48.796;44.740;2022-11-25T04:36:12;101969.63;;;2.61;73.83
75701;BME280;64321;48.796;44.740;2022-11-25T04:41:15;101962.59;;;2.63;74.08
75701;BME280;64321;48.796;44.740;2022-11-25T04:46:22;101949.97;;;2.48;73.97
75701;BME280;64321;48.796;44.740;2022-11-25T04:51:25;101972.56;;;2.49;74.78
75701;BME280;64321;48.796;44.740;2022-11-25T04:56:32;101957.88;;;2.45;74.96
75701;BME280;64321;48.796;44.740;2022-11-25T05:01:35;101985.25;;;2.61;74.97
75701;BME280;64321;48.796;44.740;2022-11-25T05:06:51;101983.00;;;2.49;74.99
75701;BME280;64321;48.796;44.740;2022-11-25T05:11:58;101990.47;;;2.61;75.14
75701;BME280;64321;48.796;44.740;2022-11-25T05:17:02;101993.81;;;2.66;74.66
75701;BME280;64321;48.796;44.740;2022-11-25T05:22:08;101996.53;;;2.62;74.56
75701;BME280;64321;48.796;44.740;2022-11-25T05:27:12;101997.06;;;2.74;75.26
75701;BME280;64321;48.796;44.740;2022-11-25T05:32:15;101992.19;;;2.93;75.06
75701;BME280;64321;48.796;44.740;2022-11-25T05:37:18;102007.00;;;2.93;74.93
75701;BME280;64321;48.796;44.740;2022-11-25T05:42:32;102002.28;;;2.74;74.98
75701;BME280;64321;48.796;44.740;2022-11-25T05:47:38;101998.69;;;2.78;74.78
75701;BME280;64321;48.796;44.740;2022-11-25T05:52:41;101997.97;;;2.73;74.98
75701;BME280;64321;48.796;44.740;2022-11-25T05:57:44;102004.69;;;2.82;75.46
75701;BME280;64321;48.796;44.740;2022-11-25T06:02:50;102007.28;;;3.13;74.10
75701;BME280;64321;48.796;44.740;2022-11-25T06:07:55;102005.09;;;4.12;71.16
75701;BME280;64321;48.796;44.740;2022-11-25T06:13:00;102014.56;;;3.61;71.74
75701;BME280;64321;48.796;44.740;2022-11-25T06:18:03;102018.91;;;3.32;73.46
75701;BME280;64321;48.796;44.740;2022-11-25T06:23:08;102012.19;;;3.24;73.63
75701;BME280;64321;48.796;44.740;2022-11-25T06:28:12;102027.16;;;3.48;73.30
75701;BME280;64321;48.796;44.740;2022-11-25T06:33:20;102035.69;;;3.55;72.12
75701;BME280;64321;48.796;44.740;2022-11-25T06:38:23;102038.00;;;3.64;72.33
75701;BME280;64321;48.796;44.740;2022-11-25T06:43:26;102044.28;;;3.58;73.08
75701;BME280;64321;48.796;44.740;2022-11-25T06:48:28;102038.91;;;3.33;73.66
75701;BME280;64321;48.796;44.740;2022-11-25T06:53:31;102029.69;;;3.51;74.07
75701;BME280;64321;48.796;44.740;2022-11-25T06:58:35;102014.47;;;3.93;72.93
75701;BME280;64321;48.796;44.740;2022-11-25T07:03:38;102031.75;;;3.69;73.16
75701;BME280;64321;48.796;44.740;2022-11-25T07:08:42;102026.22;;;3.51;73.11
75701;BME280;64321;48.796;44.740;2022-11-25T07:13:45;102029.06;;;3.41;73.89
75701;BME280;64321;48.796;44.740;2022-11-25T07:18:48;102026.47;;;3.41;73.70
75701;BME280;64321;48.796;44.740;2022-11-25T07:23:51;102038.97;;;3.60;73.71
75701;BME280;64321;48.796;44.740;2022-11-25T07:28:57;102014.59;;;4.66;71.74
75701;BME280;64321;48.796;44.740;2022-11-25T07:34:05;102020.53;;;4.46;70.63
75701;BME280;64321;48.796;44.740;2022-11-25T07:39:15;102040.34;;;4.01;72.11
75701;BME280;64321;48.796;44.740;2022-11-25T07:44:19;102032.06;;;4.41;71.42
75701;BME280;64321;48.796;44.740;2022-11-25T07:49:32;102048.25;;;4.26;71.10
75701;BME280;64321;48.796;44.740;2022-11-25T07:54:35;102050.75;;;4.02;72.20
75701;BME280;64321;48.796;44.740;2022-11-25T07:59:38;102047.41;;;3.97;72.27
75701;BME280;64321;48.796;44.740;2022-11-25T08:04:42;102029.41;;;3.88;72.32
75701;BME280;64321;48.796;44.740;2022-11-25T08:09:45;102047.19;;;4.05;72.46
75701;BME280;64321;48.796;44.740;2022-11-25T08:14:47;102053.41;;;4.01;72.03
75701;BME280;64321;48.796;44.740;2022-11-25T08:19:50;102056.66;;;4.09;71.72
75701;BME280;64321;48.796;44.740;2022-11-25T08:24:52;102043.25;;;3.92;72.58
75701;BME280;64321;48.796;44.740;2022-11-25T08:29:55;102033.75;;;3.89;72.55
75701;BME280;64321;48.796;44.740;2022-11-25T08:34:58;102032.75;;;4.19;72.04
75701;BME280;64321;48.796;44.740;2022-11-25T08:40:00;102040.88;;;4.88;71.90
75701;BME280;64321;48.796;44.740;2022-11-25T08:45:05;102043.50;;;4.37;70.38
75701;BME280;64321;48.796;44.740;2022-11-25T08:50:09;102040.66;;;4.18;71.90
75701;BME280;64321;48.796;44.740;2022-11-25T08:55:12;102026.97;;;4.10;71.87
75701;BME280;64321;48.796;44.740;2022-11-25T09:00:15;102032.00;;;4.16;71.97
75701;BME280;64321;48.796;44.740;2022-11-25T09:05:17;102030.81;;;4.26;72.23
75701;BME280;64321;48.796;44.740;2022-11-25T09:10:20;102012.41;;;4.29;72.36
75701;BME280;64321;48.796;44.740;2022-11-25T09:15:23;102025.00;;;4.43;72.50
75701;BME280;64321;48.796;44.740;2022-11-25T09:20:26;102042.56;;;3.85;74.32
75701;BME280;64321;48.796;44.740;2022-11-25T09:25:29;102050.66;;;4.05;74.21
75701;BME280;64321;48.796;44.740;2022-11-25T09:30:32;102041.38;;;4.48;72.59
75701;BME280;64321;48.796;44.740;2022-11-25T09:35:35;102024.81;;;4.74;72.02
75701;BME280;64321;48.796;44.740;2022-11-25T09:40:53;102030.78;;;5.02;72.80
75701;BME280;64321;48.796;44.740;2022-11-25T09:46:32;102033.72;;;4.43;72.99
75701;BME280;64321;48.796;44.740;2022-11-25T10:02:44;102032.75;;;4.46;71.87
75701;BME280;64321;48.796;44.740;2022-11-25T10:08:00;102016.56;;;4.35;71.69
75701;BME280;64321;48.796;44.740;2022-11-25T10:13:12;102032.66;;;4.23;72.61
75701;BME280;64321;48.796;44.740;2022-11-25T10:18:29;102023.84;;;3.99;73.29
75701;BME280;64321;48.796;44.740;2022-11-25T10:23:38;102038.56;;;4.01;73.31
75701;BME280;64321;48.796;44.740;2022-11-25T10:34:36;102029.75;;;4.05;73.58
75701;BME280;64321;48.796;44.740;2022-11-25T10:39:39;102017.47;;;4.34;71.74
75701;BME280;64321;48.796;44.740;2022-11-25T10:44:42;102029.81;;;4.55;71.64
75701;BME280;64321;48.796;44.740;2022-11-25T10:55:28;102055.28;;;4.24;73.28
75701;BME280;64321;48.796;44.740;2022-11-25T11:00:35;102042.75;;;4.07;73.73
75701;BME280;64321;48.796;44.740;2022-11-25T11:05:47;102053.94;;;4.12;73.95
75701;BME280;64321;48.796;44.740;2022-11-25T11:11:14;102047.31;;;4.00;74.80
75701;BME280;64321;48.796;44.740;2022-11-25T11:17:19;102042.84;;;4.04;73.98
75701;BME280;64321;48.796;44.740;2022-11-25T11:21:55;102039.88;;;4.14;74.11
75701;BME280;64321;48.796;44.740;2022-11-25T11:27:05;102022.03;;;4.01;74.42
75701;BME280;64321;48.796;44.740;2022-11-25T11:32:21;102014.47;;;3.93;74.82
75701;BME280;64321;48.796;44.740;2022-11-25T11:37:44;102018.69;;;3.96;74.58
75701;BME280;64321;48.796;44.740;2022-11-25T12:04:34;102040.38;;;3.99;74.75
75701;BME280;64321;48.796;44.740;2022-11-25T12:09:56;102036.78;;;4.03;75.56
75701;BME280;64321;48.796;44.740;2022-11-25T12:15:15;102053.06;;;4.11;75.23
75701;BME280;64321;48.796;44.740;2022-11-25T12:21:02;102059.03;;;4.15;75.26
75701;BME280;64321;48.796;44.740;2022-11-25T12:26:17;102067.97;;;4.09;75.03
75701;BME280;64321;48.796;44.740;2022-11-25T12:31:38;102069.91;;;4.03;75.05
75701;BME280;64321;48.796;44.740;2022-11-25T12:36:44;102072.63;;;3.98;75.55
75701;BME280;64321;48.796;44.740;2022-11-25T12:41:56;102081.19;;;4.03;75.58
75701;BME280;64321;48.796;44.740;2022-11-25T12:47:00;102084.16;;;3.93;75.96
75701;BME280;64321;48.796;44.740;2022-11-25T13:03:46;102089.59;;;3.85;75.29
75701;BME280;64321;48.796;44.740;2022-11-25T13:19:40;102091.63;;;3.46;76.38
75701;BME280;64321;48.796;44.740;2022-11-25T13:24:42;102092.75;;;3.37;76.35
75701;BME280;64321;48.796;44.740;2022-11-25T13:29:52;102104.81;;;3.41;76.41
75701;BME280;64321;48.796;44.740;2022-11-25T13:50:34;102125.38;;;3.83;75.23
75701;BME280;64321;48.796;44.740;2022-11-25T14:01:23;102108.75;;;3.56;75.47
75701;BME280;64321;48.796;44.740;2022-11-25T14:06:56;102114.03;;;3.55;75.58
75701;BME280;64321;48.796;44.740;2022-11-25T14:12:20;102123.28;;;3.65;75.34
75701;BME280;64321;48.796;44.740;2022-11-25T14:28:08;102126.25;;;3.53;76.74
75701;BME280;64321;48.796;44.740;2022-11-25T14:33:45;102105.53;;;3.46;75.77
75701;BME280;64321;48.796;44.740;2022-11-25T14:38:57;102138.56;;;3.78;76.03
75701;BME280;64321;48.796;44.740;2022-11-25T14:44:13;102122.53;;;3.91;75.53
75701;BME280;64321;48.796;44.740;2022-11-25T14:49:18;102111.06;;;3.67;75.84
75701;BME280;64321;48.796;44.740;2022-11-25T14:54:42;102136.72;;;3.82;76.03
75701;BME280;64321;48.796;44.740;2022-11-25T14:59:45;102129.78;;;3.81;75.94
75701;BME280;64321;48.796;44.740;2022-11-25T15:04:48;102122.41;;;3.66;76.33
75701;BME280;64321;48.796;44.740;2022-11-25T15:09:51;102128.13;;;3.78;76.05
75701;BME280;64321;48.796;44.740;2022-11-25T15:14:54;102107.25;;;3.77;76.50
75701;BME280;64321;48.796;44.740;2022-11-25T15:20:02;102117.09;;;3.69;76.67
75701;BME280;64321;48.796;44.740;2022-11-25T15:25:13;102137.88;;;3.73;76.79
75701;BME280;64321;48.796;44.740;2022-11-25T15:30:20;102126.00;;;3.62;76.96
75701;BME280;64321;48.796;44.740;2022-11-25T15:35:25;102125.28;;;3.57;76.62
75701;BME280;64321;48.796;44.740;2022-11-25T15:40:39;102116.09;;;3.73;76.71
75701;BME280;64321;48.796;44.740;2022-11-25T15:45:45;102104.94;;;3.68;76.86
75701;BME280;64321;48.796;44.740;2022-11-25T15:50:50;102111.94;;;3.66;76.37
75701;BME280;64321;48.796;44.740;2022-11-25T15:55:59;102132.22;;;3.58;76.47
75701;BME280;64321;48.796;44.740;2022-11-25T16:01:20;102147.78;;;3.61;76.50
75701;BME280;64321;48.796;44.740;2022-11-25T16:06:27;102151.75;;;3.75;76.19
75701;BME280;64321;48.796;44.740;2022-11-25T16:11:43;102151.47;;;3.84;76.54
75701;BME280;64321;48.796;44.740;2022-11-25T16:16:46;102167.00;;;3.89;76.09
75701;BME280;64321;48.796;44.740;2022-11-25T16:21:54;102159.63;;;3.74;75.79
75701;BME280;64321;48.796;44.740;2022-11-25T16:27:03;102168.91;;;3.84;75.89
75701;BME280;64321;48.796;44.740;2022-11-25T16:32:15;102178.00;;;3.71;76.09
75701;BME280;64321;48.796;44.740;2022-11-25T16:37:18;102180.59;;;3.71;76.31
75701;BME280;64321;48.796;44.740;2022-11-25T16:42:20;102164.03;;;3.72;76.37
75701;BME280;64321;48.796;44.740;2022-11-25T16:47:24;102190.97;;;3.74;76.92
75701;BME280;64321;48.796;44.740;2022-11-25T16:52:27;102189.84;;;3.82;76.61
75701;BME280;64321;48.796;44.740;2022-11-25T16:57:30;102207.66;;;3.99;76.43
75701;BME280;64321;48.796;44.740;2022-11-25T17:02:33;102192.56;;;3.78;77.16
75701;BME280;64321;48.796;44.740;2022-11-25T17:07:36;102190.97;;;3.74;77.43
75701;BME280;64321;48.796;44.740;2022-11-25T17:12:40;102182.69;;;3.89;76.91
75701;BME280;64321;48.796;44.740;2022-11-25T17:17:44;102171.84;;;3.73;77.25
75701;BME280;64321;48.796;44.740;2022-11-25T17:22:52;102189.19;;;3.76;76.61
75701;BME280;64321;48.796;44.740;2022-11-25T17:27:55;102189.97;;;3.78;76.67
75701;BME280;64321;48.796;44.740;2022-11-25T17:33:02;102189.97;;;3.78;76.33
75701;BME280;64321;48.796;44.740;2022-11-25T17:38:18;102189.19;;;3.76;75.98
75701;BME280;64321;48.796;44.740;2022-11-25T17:43:21;102203.38;;;3.66;75.79
75701;BME280;64321;48.796;44.740;2022-11-25T17:48:24;102193.97;;;3.59;75.39
75701;BME280;64321;48.796;44.740;2022-11-25T17:53:26;102195.94;;;3.52;75.68
75701;BME280;64321;48.796;44.740;2022-11-25T17:58:29;102202.78;;;3.56;75.89
75701;BME280;64321;48.796;44.740;2022-11-25T18:03:31;102198.31;;;3.60;75.89
75701;BME280;64321;48.796;44.740;2022-11-25T18:08:34;102193.19;;;3.57;76.34
75701;BME280;64321;48.796;44.740;2022-11-25T18:13:38;102194.66;;;3.67;76.51
75701;BME280;64321;48.796;44.740;2022-11-25T18:18:42;102202.31;;;3.73;76.20
75701;BME280;64321;48.796;44.740;2022-11-25T18:23:44;102205.78;;;3.73;76.30
75701;BME280;64321;48.796;44.740;2022-11-25T18:28:47;102216.06;;;3.79;76.81
75701;BME280;64321;48.796;44.740;2022-11-25T18:33:49;102209.97;;;3.79;76.89
75701;BME280;64321;48.796;44.740;2022-11-25T18:38:52;102222.22;;;3.77;77.01
75701;BME280;64321;48.796;44.740;2022-11-25T18:43:56;102199.78;;;3.70;76.61
75701;BME280;64321;48.796;44.740;2022-11-25T18:49:00;102192.38;;;3.55;76.01
75701;BME280;64321;48.796;44.740;2022-11-25T18:54:03;102184.50;;;3.56;76.16
75701;BME280;64321;48.796;44.740;2022-11-25T18:59:10;102188.81;;;3.25;76.71
75701;BME280;64321;48.796;44.740;2022-11-25T19:04:15;102202.09;;;3.49;76.84
75701;BME280;64321;48.796;44.740;2022-11-25T19:14:41;102217.22;;;3.37;77.21
75701;BME280;64321;48.796;44.740;2022-11-25T19:19:43;102215.50;;;3.36;76.94
75701;BME280;64321;48.796;44.740;2022-11-25T19:24:46;102220.47;;;3.45;76.91
75701;BME280;64321;48.796;44.740;2022-11-25T19:29:49;102193.50;;;3.44;77.03
75701;BME280;64321;48.796;44.740;2022-11-25T19:35:03;102182.91;;;3.51;76.53
75701;BME280;64321;48.796;44.740;2022-11-25T19:40:18;102187.19;;;3.53;76.42
75701;BME280;64321;48.796;44.740;2022-11-25T19:45:21;102176.03;;;3.46;76.88
75701;BME280;64321;48.796;44.740;2022-11-25T19:50:25;102167.38;;;3.44;76.62
75701;BME280;64321;48.796;44.740;2022-11-25T19:55:29;102174.66;;;3.33;76.75
75701;BME280;64321;48.796;44.740;2022-11-25T20:00:33;102155.16;;;3.46;76.42
75701;BME280;64321;48.796;44.740;2022-11-25T20:05:36;102149.53;;;3.29;77.05
75701;BME280;64321;48.796;44.740;2022-11-25T20:10:39;102162.47;;;3.34;76.84
75701;BME280;64321;48.796;44.740;2022-11-25T20:15:43;102144.34;;;3.28;77.01
75701;BME280;64321;48.796;44.740;2022-11-25T20:21:01;102139.41;;;3.19;77.40
75701;BME280;64321;48.796;44.740;2022-11-25T20:26:04;102158.81;;;3.07;76.80
75701;BME280;64321;48.796;44.740;2022-11-25T20:31:09;102155.91;;;3.19;75.97
75701;BME280;64321;48.796;44.740;2022-11-25T20:36:15;102166.91;;;2.98;76.20
75701;BME280;64321;48.796;44.740;2022-11-25T20:41:20;102154.69;;;3.00;76.08
75701;BME280;64321;48.796;44.740;2022-11-25T20:46:29;102170.25;;;3.03;76.22
75701;BME280;64321;48.796;44.740;2022-11-25T20:51:31;102168.44;;;3.05;76.49
75701;BME280;64321;48.796;44.740;2022-11-25T20:56:34;102177.09;;;3.07;76.19
75701;BME280;64321;48.796;44.740;2022-11-25T21:01:36;102185.16;;;2.98;77.04
75701;BME280;64321;48.796;44.740;2022-11-25T21:06:39;102174.84;;;2.93;76.61
75701;BME280;64321;48.796;44.740;2022-11-25T21:11:42;102173.75;;;3.02;76.90
75701;BME280;64321;48.796;44.740;2022-11-25T21:16:45;102168.78;;;2.91;77.05
75701;BME280;64321;48.796;44.740;2022-11-25T21:21:49;102178.25;;;2.95;77.10
75701;BME280;64321;48.796;44.740;2022-11-25T21:26:53;102156.78;;;2.86;76.54
75701;BME280;64321;48.796;44.740;2022-11-25T21:31:55;102186.19;;;2.91;76.57
75701;BME280;64321;48.796;44.740;2022-11-25T21:36:58;102188.31;;;3.10;76.31
75701;BME280;64321;48.796;44.740;2022-11-25T21:42:04;102186.00;;;3.00;76.61
75701;BME280;64321;48.796;44.740;2022-11-25T21:47:28;102181.16;;;2.85;76.96
75701;BME280;64321;48.796;44.740;2022-11-25T21:52:31;102181.16;;;2.85;77.25
75701;BME280;64321;48.796;44.740;2022-11-25T21:57:34;102186.28;;;2.88;77.15
75701;BME280;64321;48.796;44.740;2022-11-25T22:02:36;102164.50;;;2.89;77.25
75701;BME280;64321;48.796;44.740;2022-11-25T22:07:39;102169.47;;;2.99;77.16
75701;BME280;64321;48.796;44.740;2022-11-25T22:12:44;102151.47;;;2.89;76.88
75701;BME280;64321;48.796;44.740;2022-11-25T22:17:52;102136.06;;;2.79;77.52
75701;BME280;64321;48.796;44.740;2022-11-25T22:22:56;102131.59;;;2.85;77.61
75701;BME280;64321;48.796;44.740;2022-11-25T22:27:59;102138.84;;;2.72;77.38
75701;BME280;64321;48.796;44.740;2022-11-25T22:33:02;102136.38;;;2.67;77.75
75701;BME280;64321;48.796;44.740;2022-11-25T22:38:15;102144.03;;;2.73;78.37
75701;BME280;64321;48.796;44.740;2022-11-25T22:43:28;102145.97;;;2.65;78.29
75701;BME280;64321;48.796;44.740;2022-11-25T22:48:34;102148.00;;;2.53;78.08
75701;BME280;64321;48.796;44.740;2022-11-25T22:53:37;102143.31;;;2.68;78.25
75701;BME280;64321;48.796;44.740;2022-11-25T22:58:39;102137.66;;;2.50;77.69
75701;BME280;64321;48.796;44.740;2022-11-25T23:03:43;102122.22;;;2.40;77.19
75701;BME280;64321;48.796;44.740;2022-11-25T23:08:45;102112.56;;;2.46;77.59
75701;BME280;64321;48.796;44.740;2022-11-25T23:13:48;102101.44;;;2.37;76.99
75701;BME280;64321;48.796;44.740;2022-11-25T23:18:51;102102.91;;;2.49;77.13
75701;BME280;64321;48.796;44.740;2022-11-25T23:23:54;102094.38;;;2.42;77.33
75701;BME280;64321;48.796;44.740;2022-11-25T23:28:57;102111.66;;;2.47;77.37
75701;BME280;64321;48.796;44.740;2022-11-25T23:33:59;102113.19;;;2.55;77.07
75701;BME280;64321;48.796;44.740;2022-11-25T23:39:02;102111.50;;;2.53;76.86
75701;BME280;64321;48.796;44.740;2022-11-25T23:49:29;102114.31;;;2.45;76.85
75701;BME280;64321;48.796;44.740;2022-11-25T23:54:38;102116.56;;;2.59;76.90
75701;BME280;64321;48.796;44.740;2022-11-25T23:59:42;102107.75;;;2.64;76.62
